createdAt,value
2022-12-13T00:02:03.777Z,17.47
2022-12-13T00:07:06.224Z,22.97
2022-12-13T00:12:08.695Z,23.07
2022-12-13T00:17:11.079Z,24.17
2022-12-13T00:22:14.098Z,16.83
2022-12-13T00:27:16.703Z,22.10
2022-12-13T00:32:19.193Z,18.67
2022-12-13T00:37:21.676Z,21.43
2022-12-13T00:42:24.209Z,20.67
2022-12-13T00:47:26.652Z,18.53
2022-12-13T00:52:29.135Z,10.60
2022-12-13T00:57:31.701Z,11.73
2022-12-13T01:02:34.085Z,14.90
2022-12-13T01:07:37.726Z,16.90
2022-12-13T01:12:40.172Z,11.27
2022-12-13T01:17:42.671Z,18.40
2022-12-13T01:22:45.103Z,16.37
2022-12-13T01:27:47.549Z,16.40
2022-12-13T01:32:49.941Z,13.43
2022-12-13T01:37:52.264Z,14.00
2022-12-13T01:43:00.742Z,11.83
2022-12-13T01:48:06.269Z,15.33
2022-12-13T01:53:14.182Z,13.27
2022-12-13T01:58:17.398Z,12.33
2022-12-13T02:03:22.607Z,13.13
2022-12-13T02:08:26.009Z,10.97
2022-12-13T02:13:28.440Z,11.60
2022-12-13T02:18:30.762Z,11.87
2022-12-13T02:23:39.053Z,11.43
2022-12-13T02:29:02.478Z,13.10
2022-12-13T02:34:23.987Z,7.73
2022-12-13T02:39:36.271Z,8.67
2022-12-13T02:44:44.031Z,9.23
2022-12-13T02:49:51.410Z,8.77
2022-12-13T02:54:55.839Z,9.80
2022-12-13T03:00:01.918Z,10.60
2022-12-13T03:06:00.631Z,11.40
2022-12-13T03:11:12.466Z,8.53
2022-12-13T03:16:39.433Z,7.50
2022-12-13T03:21:48.659Z,8.83
2022-12-13T03:26:52.226Z,7.97
2022-12-13T03:31:57.494Z,6.17
2022-12-13T03:37:00.021Z,7.40
2022-12-13T03:42:03.486Z,7.43
2022-12-13T03:47:05.990Z,7.67
2022-12-13T03:52:08.281Z,5.90
2022-12-13T03:57:10.670Z,5.47
2022-12-13T04:02:13.112Z,4.33
2022-12-13T04:07:21.842Z,7.67
2022-12-13T04:12:48.187Z,7.07
2022-12-13T04:17:51.359Z,7.67
2022-12-13T04:22:53.849Z,6.97
2022-12-13T04:27:56.177Z,5.53
2022-12-13T04:32:58.790Z,6.23
2022-12-13T04:38:01.680Z,8.90
2022-12-13T04:43:04.165Z,6.67
2022-12-13T04:48:07.766Z,3.87
2022-12-13T04:53:16.119Z,6.47
2022-12-13T04:58:23.004Z,4.33
2022-12-13T05:03:25.732Z,6.83
2022-12-13T05:08:28.224Z,5.33
2022-12-13T05:13:30.666Z,7.33
2022-12-13T05:18:34.384Z,6.43
2022-12-13T05:23:37.080Z,6.27
2022-12-13T05:28:39.515Z,5.73
2022-12-13T05:33:42.167Z,5.47
2022-12-13T05:38:44.964Z,4.77
2022-12-13T05:43:47.361Z,4.40
2022-12-13T05:48:49.850Z,4.40
2022-12-13T05:53:53.516Z,7.10
2022-12-13T05:58:56.253Z,4.77
2022-12-13T06:03:58.724Z,4.53
2022-12-13T06:09:01.472Z,5.80
2022-12-13T06:14:04.003Z,6.63
2022-12-13T06:19:25.394Z,5.50
2022-12-13T06:24:27.898Z,5.60
2022-12-13T06:29:30.352Z,4.50
2022-12-13T06:34:35.822Z,5.60
2022-12-13T06:39:38.823Z,4.10
2022-12-13T06:44:59.121Z,5.77
2022-12-13T06:50:05.530Z,4.63
2022-12-13T06:55:08.822Z,4.13
2022-12-13T07:00:11.731Z,3.10
2022-12-13T07:05:14.214Z,4.23
2022-12-13T07:10:22.539Z,5.83
2022-12-13T07:15:25.230Z,4.53
2022-12-13T07:20:27.807Z,4.87
2022-12-13T07:25:30.314Z,3.87
2022-12-13T07:30:40.911Z,6.60
2022-12-13T07:35:44.245Z,4.03
2022-12-13T07:40:46.663Z,7.70
2022-12-13T07:45:49.071Z,7.17
2022-12-13T07:50:54.724Z,4.03
2022-12-13T07:55:57.431Z,5.93
2022-12-13T08:01:01.991Z,3.23
2022-12-13T08:06:11.335Z,10.67
2022-12-13T08:11:17.568Z,1.20
2022-12-13T08:16:28.262Z,2.20
2022-12-13T08:21:55.151Z,4.73
2022-12-13T08:27:02.297Z,3.57
2022-12-13T08:32:07.841Z,3.70
2022-12-13T08:37:10.217Z,4.73
2022-12-13T08:42:19.247Z,3.83
2022-12-13T08:47:26.327Z,8.40
2022-12-13T08:52:29.567Z,5.03
2022-12-13T08:57:32.264Z,10.47
2022-12-13T09:02:38.786Z,5.73
2022-12-13T09:07:43.006Z,2.90
2022-12-13T09:12:48.455Z,4.20
2022-12-13T09:17:52.484Z,3.17
2022-12-13T09:23:01.307Z,3.43
2022-12-13T09:28:07.591Z,3.27
2022-12-13T09:33:28.204Z,4.87
2022-12-13T09:38:35.848Z,2.87
2022-12-13T09:43:42.624Z,2.73
2022-12-13T09:48:48.332Z,3.00
2022-12-13T09:53:52.864Z,2.93
2022-12-13T09:58:59.961Z,2.90
2022-12-13T10:04:02.409Z,4.30
2022-12-13T10:09:08.563Z,2.83
2022-12-13T10:14:16.166Z,3.53
2022-12-13T10:19:30.082Z,5.03
2022-12-13T10:25:05.133Z,4.10
2022-12-13T10:30:15.734Z,4.10
2022-12-13T10:35:36.449Z,5.57
2022-12-13T10:40:49.339Z,4.60
2022-12-13T10:46:02.813Z,3.30
2022-12-13T10:51:17.156Z,2.90
2022-12-13T10:56:23.818Z,2.10
2022-12-13T11:01:30.426Z,8.33
2022-12-13T11:06:47.135Z,6.90
2022-12-13T11:11:58.332Z,5.20
2022-12-13T11:17:09.170Z,4.87
2022-12-13T11:22:35.030Z,3.17
2022-12-13T11:27:48.527Z,0.93
2022-12-13T11:33:09.445Z,5.70
2022-12-13T11:38:31.276Z,8.83
2022-12-13T11:43:38.597Z,3.50
2022-12-13T11:48:51.094Z,8.10
2022-12-13T11:54:09.079Z,3.30
2022-12-13T11:59:32.143Z,4.57
2022-12-13T12:04:58.080Z,4.03
2022-12-13T12:10:14.030Z,3.83
2022-12-13T12:15:28.335Z,4.90
2022-12-13T12:21:16.906Z,8.73
2022-12-13T12:26:26.258Z,7.80
2022-12-13T12:31:51.275Z,13.43
2022-12-13T12:37:17.847Z,2.93
2022-12-13T12:43:14.497Z,8.20
2022-12-13T12:48:55.120Z,5.17
2022-12-13T12:54:33.475Z,5.03
2022-12-13T13:00:09.483Z,4.53
2022-12-13T13:05:20.319Z,6.23
2022-12-13T13:10:27.281Z,7.97
2022-12-13T13:15:32.786Z,9.37
2022-12-13T13:20:35.796Z,5.57
2022-12-13T13:26:00.239Z,3.90
2022-12-13T13:31:11.157Z,8.23
2022-12-13T13:36:39.562Z,12.20
2022-12-13T13:41:54.099Z,11.13
2022-12-13T13:47:17.125Z,10.63
2022-12-13T13:52:26.445Z,9.73
2022-12-13T13:58:08.985Z,10.73
2022-12-13T14:09:27.008Z,9.77
2022-12-13T14:15:22.936Z,12.00
2022-12-13T14:20:58.036Z,10.97
2022-12-13T14:26:28.969Z,7.80
2022-12-13T14:36:47.999Z,4.23
2022-12-13T14:41:57.552Z,9.97
2022-12-13T14:47:06.208Z,8.20
2022-12-13T14:52:30.235Z,12.50
2022-12-13T14:57:34.880Z,10.30
2022-12-13T15:02:37.392Z,11.43
2022-12-13T15:07:41.802Z,15.37
2022-12-13T15:12:45.522Z,11.03
2022-12-13T15:17:48.138Z,13.93
2022-12-13T15:23:04.354Z,11.93
2022-12-13T15:28:21.246Z,6.73
2022-12-13T15:33:33.390Z,9.77
2022-12-13T15:38:41.343Z,10.17
2022-12-13T15:43:50.302Z,13.30
2022-12-13T15:48:53.766Z,22.97
2022-12-13T15:54:05.455Z,14.13
2022-12-13T15:59:29.299Z,19.20
2022-12-13T16:04:33.084Z,17.70
2022-12-13T16:09:39.469Z,18.70
2022-12-13T16:14:49.238Z,16.53
2022-12-13T16:20:02.120Z,11.07
2022-12-13T16:25:19.383Z,22.70
2022-12-13T16:30:28.430Z,62.43
2022-12-13T16:35:30.767Z,32.17
2022-12-13T16:40:33.447Z,30.90
2022-12-13T16:45:44.671Z,28.03
2022-12-13T16:50:57.731Z,27.83
2022-12-13T16:56:00.623Z,21.53
2022-12-13T17:01:09.395Z,29.47
2022-12-13T17:06:16.198Z,27.07
2022-12-13T17:11:18.773Z,35.23
2022-12-13T17:16:21.367Z,45.87
2022-12-13T17:21:25.897Z,43.10
2022-12-13T17:26:29.246Z,32.27
2022-12-13T17:31:35.800Z,28.43
2022-12-13T17:36:38.853Z,18.53
2022-12-13T17:41:41.935Z,22.33
2022-12-13T17:46:44.354Z,20.90
2022-12-13T17:51:57.949Z,19.87
2022-12-13T17:57:00.441Z,30.70
2022-12-13T18:02:02.930Z,27.33
2022-12-13T18:07:05.315Z,23.53
2022-12-13T18:12:08.545Z,33.93
2022-12-13T18:17:10.959Z,26.50
2022-12-13T18:22:13.356Z,17.73
2022-12-13T18:27:15.713Z,20.90
2022-12-13T18:32:18.003Z,24.33
2022-12-13T18:37:20.362Z,34.60
2022-12-13T18:42:25.244Z,49.03
2022-12-13T18:47:28.233Z,56.77
2022-12-13T18:52:30.821Z,48.53
2022-12-13T18:57:33.240Z,68.10
2022-12-13T19:02:35.678Z,55.07
2022-12-13T19:07:43.217Z,51.23
2022-12-13T19:12:54.229Z,63.57
2022-12-13T19:17:58.739Z,48.13
2022-12-13T19:23:01.049Z,57.40
2022-12-13T19:28:03.499Z,60.93
2022-12-13T19:33:07.897Z,36.47
2022-12-13T19:38:10.477Z,69.80
2022-12-13T19:43:12.853Z,82.80
2022-12-13T19:48:16.020Z,85.53
2022-12-13T19:53:18.390Z,48.77
2022-12-13T19:58:20.897Z,41.47
2022-12-13T20:03:23.392Z,65.03
2022-12-13T20:08:26.549Z,39.83
2022-12-13T20:13:29.699Z,52.10
2022-12-13T20:18:33.620Z,53.10
2022-12-13T20:23:37.243Z,64.80
2022-12-13T20:28:40.127Z,73.03
2022-12-13T20:33:42.787Z,59.17
2022-12-13T20:38:45.202Z,65.03
2022-12-13T20:43:55.415Z,73.87
2022-12-13T20:49:00.564Z,64.57
2022-12-13T20:54:03.164Z,91.57
2022-12-13T20:59:07.994Z,88.33
2022-12-13T21:04:11.315Z,94.57
2022-12-13T21:09:13.762Z,106.10
2022-12-13T21:14:23.119Z,76.53
2022-12-13T21:19:39.013Z,86.73
2022-12-13T21:24:42.174Z,95.43
2022-12-13T21:29:44.518Z,116.03
2022-12-13T21:34:46.903Z,95.63
2022-12-13T21:39:49.221Z,85.50
2022-12-13T21:44:51.953Z,84.20
2022-12-13T21:49:54.324Z,70.93
2022-12-13T21:55:15.165Z,103.17
2022-12-13T22:00:19.146Z,111.00
2022-12-13T22:05:22.209Z,117.22
2022-12-13T22:10:24.952Z,119.73
2022-12-13T22:15:28.732Z,130.77
2022-12-13T22:20:31.704Z,121.13
2022-12-13T22:25:35.597Z,125.47
2022-12-13T22:30:38.714Z,122.47
2022-12-13T22:35:41.109Z,122.87
2022-12-13T22:40:44.088Z,132.50
2022-12-13T22:45:46.396Z,125.37
2022-12-13T22:50:48.734Z,124.63
2022-12-13T22:55:51.846Z,111.20
2022-12-13T23:00:54.248Z,83.10
2022-12-13T23:05:56.957Z,42.67
2022-12-13T23:11:18.966Z,63.93
2022-12-13T23:16:23.409Z,72.63
2022-12-13T23:21:27.675Z,72.67
2022-12-13T23:26:31.978Z,65.20
2022-12-13T23:31:37.139Z,62.47
2022-12-13T23:36:39.667Z,73.77
2022-12-13T23:41:42.179Z,69.87
2022-12-13T23:46:48.390Z,68.97
2022-12-13T23:51:51.212Z,72.07
2022-12-13T23:56:54.220Z,76.07
